Tuesday, March 19, 2019, 11:24 PM EDT
Back to Local

KASH, Nashua, Boire Field Airport

Location: Nashua, NH, United States Lat: 42.782
Local Time: 11:24 PM EDT ( 3:24 GMT) Lon: -71.515
Time Zone: US/Eastern Elev: 200 ft

Show me the last for .
Show Decoded

2019-03-19 22:56 METAR KASH 200256Z AUTO 00000KT 10SM CLR M03/M07 A3040 RMK AO2 SLP305 T10281072
                 51010 FZRANO $ =
2019-03-19 21:56 METAR KASH 200156Z AUTO 00000KT 10SM SCT070 M02/M09 A3039 RMK AO2 SLP302
                 T10221089 FZRANO $ =
2019-03-19 20:56 METAR KASH 200056Z 00000KT 10SM CLR M02/M08 A3038 RMK AO2 SLP300 T10221083 $ =
2019-03-19 19:56 METAR KASH 192356Z 00000KT 10SM FEW080 01/M09 A3037 RMK AO2 SLP296 T00061089
                 10061 20006 53015 $ =
2019-03-19 18:56 METAR KASH 192256Z COR 29005KT 10SM SCT080 04/M12 A3035 RMK AO2 SLP290 T00391122
                 $ =
2019-03-19 17:56 METAR KASH 192156Z COR 29012KT 10SM SCT080 05/M13 A3033 RMK AO2 SLP284 T00501128
                 $ =
2019-03-19 16:56 METAR KASH 192056Z 31011G18KT 10SM SCT065 05/M13 A3032 RMK AO2 SLP280 T00501128
                 55008 $ =
2019-03-19 15:56 METAR KASH 191956Z 31015G24KT 10SM SCT070 06/M12 A3032 RMK AO2 SLP280 T00561122
                 $ =
2019-03-19 14:56 METAR KASH 191856Z 34011G18KT 10SM BKN070 06/M11 A3033 RMK AO2 SLP283 T00561111
                 $ =
2019-03-19 13:56 METAR KASH 191756Z COR 30010G18KT 10SM BKN060 04/M11 A3035 RMK AO2 SLP288
                 T00441106 10050 21033 58010 $ =
2019-03-19 12:56 METAR KASH 191656Z 28008G14KT 10SM BKN060 04/M11 A3036 RMK AO2 SLP293 T00441106
                 $ =
2019-03-19 11:56 METAR KASH 191556Z 29008G14KT 270V340 10SM BKN060 04/M11 A3037 RMK AO2 SLP295
                 T00391106 $ =
2019-03-19 10:56 METAR KASH 191456Z VRB06KT 10SM SCT045 02/M08 A3038 RMK AO2 SLP298 T00221078
                 50006 $ =
2019-03-19 09:56 METAR KASH 191356Z 00000KT 10SM SCT031 01/M07 A3038 RMK AO2 SLP299 T00111067 $ =
2019-03-19 08:56 METAR KASH 191256Z 32006KT 10SM CLR M01/M05 A3037 RMK AO2 SLP297 T10061050 $ =
2019-03-19 07:56 METAR KASH 191156Z 00000KT 10SM FEW060 M03/M06 A3036 RMK AO2 SLP292 T10331061
                 11033 21061 53017 $ =
2019-03-19 06:56 METAR KASH 191056Z 00000KT 10SM SCT080 M06/M07 A3034 RMK AO2 SLP287 T10561072 $
                 =
2019-03-19 05:56 METAR KASH 190956Z AUTO 00000KT 10SM FEW090 M06/M08 A3032 RMK AO2 SLP279
                 T10561078 FZRANO $ =
2019-03-19 04:56 METAR KASH 190856Z AUTO 00000KT 10SM FEW090 M05/M07 A3031 RMK AO2 SLP275
                 T10501072 53001 FZRANO $ =
2019-03-19 03:56 METAR KASH 190756Z AUTO 00000KT 10SM BKN085 M05/M08 A3030 RMK AO2 SLP273
                 T10501078 FZRANO $ =
2019-03-19 02:56 METAR KASH 190656Z AUTO 30003KT 10SM CLR M04/M08 A3030 RMK AO2 SLP273 T10441083
                 FZRANO $ =
2019-03-19 01:56 METAR KASH 190556Z AUTO 00000KT 10SM CLR M04/M08 A3031 RMK AO2 SLP274 T10441083
                 10000 21050 53003 FZRANO $ =
2019-03-19 00:56 METAR KASH 190456Z AUTO 30003KT 10SM CLR M04/M09 A3030 RMK AO2 SLP271 T10391089
                 400441050 FZRANO $ =
2019-03-18 23:56 METAR KASH 190356Z AUTO 00000KT 10SM CLR M03/M09 A3030 RMK AO2 SLP271 T10331089
                 FZRANO $ =

Support USWX by starting your Amazon purchase here.